createdAt,value
2024-02-23T00:01:09.919Z,8.70
2024-02-23T00:03:37.746Z,8.70
2024-02-23T00:06:05.040Z,8.70
2024-02-23T00:08:32.087Z,8.70
2024-02-23T00:10:58.937Z,8.60
2024-02-23T00:13:25.621Z,8.60
2024-02-23T00:15:52.930Z,8.50
2024-02-23T00:18:19.896Z,8.40
2024-02-23T00:20:47.802Z,8.40
2024-02-23T00:23:14.582Z,8.30
2024-02-23T00:25:41.341Z,8.30
2024-02-23T00:28:08.710Z,8.30
2024-02-23T00:30:35.611Z,8.30
2024-02-23T00:33:02.577Z,8.20
2024-02-23T00:35:29.425Z,8.20
2024-02-23T00:37:56.130Z,8.10
2024-02-23T00:40:24.422Z,10.10
2024-02-23T00:42:51.119Z,8.10
2024-02-23T00:45:17.745Z,8.10
2024-02-23T00:47:45.020Z,8.00
2024-02-23T00:50:11.871Z,8.00
2024-02-23T00:52:38.621Z,7.90
2024-02-23T00:55:05.695Z,7.90
2024-02-23T00:57:32.333Z,7.90
2024-02-23T00:59:59.016Z,7.80
2024-02-23T01:02:25.901Z,7.70
2024-02-23T01:04:57.775Z,7.70
2024-02-23T01:07:24.575Z,7.70
2024-02-23T01:09:51.719Z,7.60
2024-02-23T01:12:18.499Z,7.50
2024-02-23T01:14:45.202Z,7.50
2024-02-23T01:17:11.914Z,7.50
2024-02-23T01:19:39.114Z,7.40
2024-02-23T01:22:05.750Z,7.40
2024-02-23T01:24:32.510Z,7.30
2024-02-23T01:26:59.651Z,7.30
2024-02-23T01:29:27.776Z,7.20
2024-02-23T01:31:57.466Z,7.10
2024-02-23T01:34:24.365Z,7.00
2024-02-23T01:36:51.129Z,7.10
2024-02-23T01:39:17.769Z,7.10
2024-02-23T01:41:45.103Z,7.10
2024-02-23T01:44:12.721Z,7.10
2024-02-23T01:46:39.628Z,7.10
2024-02-23T01:49:09.090Z,7.10
2024-02-23T01:51:36.564Z,7.00
2024-02-23T01:54:04.474Z,7.00
2024-02-23T01:56:33.406Z,6.80
2024-02-23T01:59:00.952Z,6.80
2024-02-23T02:01:27.740Z,6.80
2024-02-23T02:03:54.514Z,6.80
2024-02-23T02:06:21.416Z,6.60
2024-02-23T02:08:48.586Z,6.60
2024-02-23T02:11:16.203Z,6.50
2024-02-23T02:13:42.996Z,6.40
2024-02-23T02:16:09.717Z,6.50
2024-02-23T02:18:36.356Z,6.40
2024-02-23T02:21:03.073Z,6.40
2024-02-23T02:23:29.871Z,6.40
2024-02-23T02:25:58.562Z,6.40
2024-02-23T02:28:26.390Z,6.40
2024-02-23T02:30:54.009Z,6.50
2024-02-23T02:33:21.307Z,6.40
2024-02-23T02:35:48.134Z,6.40
2024-02-23T02:38:14.929Z,6.40
2024-02-23T02:40:41.669Z,6.50
2024-02-23T02:43:08.573Z,6.20
2024-02-23T02:45:35.506Z,6.30
2024-02-23T02:48:05.411Z,6.30
2024-02-23T02:50:32.805Z,6.40
2024-02-23T02:52:59.741Z,6.30
2024-02-23T02:55:26.399Z,6.40
2024-02-23T02:57:53.070Z,6.40
2024-02-23T03:00:19.760Z,6.40
2024-02-23T03:02:46.414Z,6.30
2024-02-23T03:05:13.080Z,6.30
2024-02-23T03:07:39.786Z,6.30
2024-02-23T03:10:07.032Z,6.30
2024-02-23T03:12:33.794Z,6.30
2024-02-23T03:15:00.547Z,6.40
2024-02-23T03:17:27.319Z,6.40
2024-02-23T03:19:54.108Z,6.30
2024-02-23T03:22:21.093Z,6.30
2024-02-23T03:24:47.838Z,6.30
2024-02-23T03:27:14.684Z,6.30
2024-02-23T03:29:41.742Z,6.30
2024-02-23T03:32:08.784Z,6.30
2024-02-23T03:34:36.409Z,6.20
2024-02-23T03:37:03.938Z,6.30
2024-02-23T03:39:30.858Z,9.50
2024-02-23T03:41:57.513Z,6.30
2024-02-23T03:44:24.391Z,6.40
2024-02-23T03:46:51.506Z,6.30
2024-02-23T03:49:18.360Z,6.40
2024-02-23T03:51:45.224Z,6.40
2024-02-23T03:54:11.914Z,4.90
2024-02-23T03:56:43.066Z,6.40
2024-02-23T03:59:10.742Z,6.50
2024-02-23T04:01:41.116Z,6.50
2024-02-23T04:04:08.046Z,6.40
2024-02-23T04:06:35.557Z,6.40
2024-02-23T04:09:02.345Z,6.30
2024-02-23T04:11:29.082Z,6.30
2024-02-23T04:13:56.172Z,6.30
2024-02-23T04:16:25.965Z,6.30
2024-02-23T04:18:52.935Z,6.30
2024-02-23T04:21:19.700Z,6.30
2024-02-23T04:23:46.832Z,6.20
2024-02-23T04:26:13.723Z,6.30
2024-02-23T04:28:41.349Z,6.30
2024-02-23T04:31:09.978Z,6.30
2024-02-23T04:33:37.477Z,6.10
2024-02-23T04:36:04.901Z,6.10
2024-02-23T04:38:32.162Z,6.10
2024-02-23T04:40:59.392Z,6.00
2024-02-23T04:43:26.418Z,6.00
2024-02-23T04:45:53.259Z,6.00
2024-02-23T04:48:20.037Z,6.10
2024-02-23T04:50:46.750Z,5.90
2024-02-23T04:53:13.490Z,5.90
2024-02-23T04:55:40.202Z,5.90
2024-02-23T04:58:07.385Z,5.90
2024-02-23T05:00:34.590Z,5.90
2024-02-23T05:03:04.654Z,6.00
2024-02-23T05:05:32.612Z,5.90
2024-02-23T05:08:00.512Z,6.00
2024-02-23T05:10:27.275Z,5.90
2024-02-23T05:12:54.013Z,5.90
2024-02-23T05:15:20.927Z,5.80
2024-02-23T05:17:47.916Z,5.80
2024-02-23T05:20:15.366Z,5.80
2024-02-23T05:22:42.193Z,5.80
2024-02-23T05:25:08.998Z,5.90
2024-02-23T05:27:35.716Z,5.90
2024-02-23T05:30:02.568Z,5.80
2024-02-23T05:32:29.339Z,5.80
2024-02-23T05:34:57.936Z,5.80
2024-02-23T05:37:25.245Z,5.90
2024-02-23T05:39:52.036Z,5.90
2024-02-23T05:42:18.687Z,5.90
2024-02-23T05:44:46.046Z,5.90
2024-02-23T05:47:15.009Z,5.90
2024-02-23T05:49:42.019Z,6.00
2024-02-23T05:52:08.844Z,6.00
2024-02-23T05:54:35.525Z,6.00
2024-02-23T05:57:02.289Z,6.10
2024-02-23T05:59:29.344Z,6.20
2024-02-23T06:01:58.069Z,6.10
2024-02-23T06:04:25.410Z,6.10
2024-02-23T06:06:52.623Z,6.10
2024-02-23T06:09:20.145Z,6.00
2024-02-23T06:11:47.364Z,9.50
2024-02-23T06:14:14.794Z,6.00
2024-02-23T06:16:41.704Z,6.00
2024-02-23T06:19:08.597Z,6.00
2024-02-23T06:21:35.454Z,6.00
2024-02-23T06:24:02.175Z,6.00
2024-02-23T06:26:29.089Z,6.00
2024-02-23T06:28:55.918Z,5.90
2024-02-23T06:31:22.644Z,5.90
2024-02-23T06:33:50.733Z,5.90
2024-02-23T06:36:17.759Z,5.90
2024-02-23T06:38:44.468Z,5.90
2024-02-23T06:41:12.598Z,5.80
2024-02-23T06:43:39.257Z,5.80
2024-02-23T06:46:09.936Z,5.80
2024-02-23T06:48:39.570Z,5.90
2024-02-23T06:51:10.349Z,5.90
2024-02-23T06:53:37.427Z,5.90
2024-02-23T06:56:04.721Z,5.90
2024-02-23T06:58:31.534Z,5.90
2024-02-23T07:00:58.553Z,6.00
2024-02-23T07:03:25.292Z,6.00
2024-02-23T07:05:52.164Z,6.00
2024-02-23T07:08:19.271Z,5.90
2024-02-23T07:10:46.641Z,5.90
2024-02-23T07:13:13.475Z,5.90
2024-02-23T07:15:40.321Z,5.90
2024-02-23T07:18:09.605Z,5.90
2024-02-23T07:20:37.968Z,5.90
2024-02-23T07:23:05.687Z,5.90
2024-02-23T07:25:32.346Z,5.90
2024-02-23T07:27:59.508Z,5.90
2024-02-23T07:30:26.211Z,5.90
2024-02-23T07:32:53.787Z,5.90
2024-02-23T07:35:21.104Z,5.90
2024-02-23T07:37:48.319Z,5.90
2024-02-23T07:40:17.356Z,5.90
2024-02-23T07:42:46.560Z,5.90
2024-02-23T07:45:13.259Z,5.90
2024-02-23T07:47:40.187Z,6.00
2024-02-23T07:50:07.485Z,6.00
2024-02-23T07:52:34.482Z,6.00
2024-02-23T07:55:03.767Z,6.00
2024-02-23T07:57:32.286Z,6.10
2024-02-23T07:59:59.084Z,6.20
2024-02-23T08:02:25.765Z,6.20
2024-02-23T08:04:53.491Z,6.20
2024-02-23T08:07:20.301Z,6.30
2024-02-23T08:09:46.982Z,6.30
2024-02-23T08:12:15.000Z,6.40
2024-02-23T08:14:42.509Z,6.60
2024-02-23T08:17:09.254Z,6.60
2024-02-23T08:19:35.986Z,6.60
2024-02-23T08:22:02.842Z,6.60
2024-02-23T08:24:29.523Z,6.60
2024-02-23T08:26:56.233Z,6.80
2024-02-23T08:29:22.941Z,6.70
2024-02-23T08:31:50.038Z,6.70
2024-02-23T08:34:18.659Z,6.70
2024-02-23T08:36:45.696Z,6.70
2024-02-23T08:39:12.328Z,6.70
2024-02-23T08:41:39.930Z,6.70
2024-02-23T08:44:06.856Z,6.70
2024-02-23T08:46:33.851Z,6.70
2024-02-23T08:49:00.685Z,6.80
2024-02-23T08:51:27.498Z,6.90
2024-02-23T08:53:54.723Z,6.90
2024-02-23T08:58:49.752Z,7.20
2024-02-23T09:01:16.427Z,7.20
2024-02-23T09:03:43.490Z,7.10
2024-02-23T09:06:10.340Z,7.10
2024-02-23T09:08:37.369Z,7.00
2024-02-23T09:11:04.298Z,7.00
2024-02-23T09:13:31.431Z,7.10
2024-02-23T09:18:25.345Z,7.10
2024-02-23T09:20:52.174Z,7.00
2024-02-23T09:23:19.018Z,7.00
2024-02-23T09:25:45.770Z,7.10
2024-02-23T09:28:12.793Z,7.20
2024-02-23T09:30:40.015Z,7.30
2024-02-23T09:33:07.050Z,7.30
2024-02-23T09:35:34.128Z,7.10
2024-02-23T09:38:00.947Z,7.20
2024-02-23T09:40:28.098Z,7.20
2024-02-23T09:42:58.241Z,7.30
2024-02-23T09:45:28.135Z,7.50
2024-02-23T09:47:57.139Z,7.50
2024-02-23T09:50:25.023Z,7.60
2024-02-23T09:52:52.497Z,7.50
2024-02-23T09:55:22.145Z,7.50
2024-02-23T09:57:49.576Z,7.50
2024-02-23T10:00:19.732Z,7.60
2024-02-23T10:02:46.507Z,7.60
2024-02-23T10:05:15.199Z,7.60
2024-02-23T10:07:42.464Z,7.80
2024-02-23T10:10:10.058Z,7.70
2024-02-23T10:12:36.997Z,7.80
2024-02-23T10:15:05.436Z,7.80
2024-02-23T10:17:36.166Z,7.90
2024-02-23T10:20:05.684Z,7.70
2024-02-23T10:22:32.876Z,7.70
2024-02-23T10:25:00.255Z,7.70
2024-02-23T10:27:27.370Z,7.80
2024-02-23T10:29:55.080Z,7.80
2024-02-23T10:32:25.314Z,7.80
2024-02-23T10:34:55.725Z,7.80
2024-02-23T10:37:24.222Z,7.80
2024-02-23T10:39:54.952Z,7.80
2024-02-23T10:42:25.591Z,7.80
2024-02-23T10:44:53.814Z,7.80
2024-02-23T10:47:22.582Z,7.80
2024-02-23T10:49:49.482Z,7.80
2024-02-23T10:52:18.194Z,7.90
2024-02-23T10:54:47.938Z,7.90
2024-02-23T10:57:17.902Z,8.00
2024-02-23T10:59:49.383Z,8.10
2024-02-23T11:02:21.400Z,8.10
2024-02-23T11:04:51.832Z,8.20
2024-02-23T11:07:22.155Z,8.20
2024-02-23T11:09:56.193Z,8.20
2024-02-23T11:12:27.541Z,8.20
2024-02-23T11:14:59.668Z,8.20
2024-02-23T11:17:32.330Z,8.40
2024-02-23T11:19:59.949Z,8.30
2024-02-23T11:22:37.185Z,8.30
2024-02-23T11:25:07.119Z,8.30
2024-02-23T11:27:35.463Z,8.30
2024-02-23T11:30:07.299Z,8.30
2024-02-23T11:32:43.074Z,8.30
2024-02-23T11:35:12.304Z,8.40
2024-02-23T11:37:48.727Z,8.40
2024-02-23T11:40:16.172Z,8.40
2024-02-23T11:42:46.085Z,8.40
2024-02-23T11:45:12.769Z,8.40
2024-02-23T11:47:40.026Z,8.40
2024-02-23T11:50:11.314Z,8.50
2024-02-23T11:52:39.378Z,8.50
2024-02-23T11:55:06.916Z,8.40
2024-02-23T11:57:42.720Z,10.00
2024-02-23T12:00:14.605Z,8.40
2024-02-23T12:02:41.500Z,8.40
2024-02-23T12:05:08.972Z,8.40
2024-02-23T12:07:36.240Z,8.30
2024-02-23T12:10:04.756Z,8.40
2024-02-23T12:12:31.549Z,8.40
2024-02-23T12:14:59.502Z,8.30
2024-02-23T12:17:28.332Z,8.30
2024-02-23T12:20:02.845Z,8.40
2024-02-23T12:22:29.782Z,8.40
2024-02-23T12:25:01.076Z,8.40
2024-02-23T12:27:30.174Z,8.30
2024-02-23T12:29:58.012Z,8.30
2024-02-23T12:32:24.966Z,8.40
2024-02-23T12:34:52.354Z,8.60
2024-02-23T12:37:19.626Z,8.70
2024-02-23T12:39:46.354Z,8.80
2024-02-23T12:42:13.077Z,8.90
2024-02-23T12:44:39.951Z,8.90
2024-02-23T12:47:07.050Z,8.90
2024-02-23T12:49:33.832Z,9.00
2024-02-23T12:52:00.521Z,8.90
2024-02-23T12:54:27.273Z,8.80
2024-02-23T12:56:53.952Z,8.80
2024-02-23T12:59:20.660Z,8.80
2024-02-23T13:01:50.249Z,8.80
2024-02-23T13:04:18.989Z,8.80
2024-02-23T13:06:45.650Z,8.70
2024-02-23T13:09:13.700Z,8.80
2024-02-23T13:11:41.244Z,8.80
2024-02-23T13:14:10.336Z,8.80
2024-02-23T13:16:37.033Z,8.80
2024-02-23T13:19:03.736Z,8.90
2024-02-23T13:21:30.534Z,8.80
2024-02-23T13:23:57.165Z,8.80
2024-02-23T13:26:23.829Z,8.90
2024-02-23T13:28:50.463Z,9.00
2024-02-23T13:31:18.146Z,9.00
2024-02-23T13:33:46.247Z,9.00
2024-02-23T13:36:13.135Z,9.10
2024-02-23T13:38:40.775Z,9.00
2024-02-23T13:41:07.952Z,9.00
2024-02-23T13:43:35.401Z,9.00
2024-02-23T13:46:04.832Z,9.00
2024-02-23T13:48:32.006Z,9.00
2024-02-23T13:50:58.998Z,9.00
2024-02-23T13:53:25.749Z,9.10
2024-02-23T13:55:52.863Z,9.10
2024-02-23T13:58:20.034Z,9.20
2024-02-23T14:00:46.804Z,9.10
2024-02-23T14:03:19.138Z,9.10
2024-02-23T14:05:47.163Z,9.00
2024-02-23T14:08:15.007Z,9.00
2024-02-23T14:10:42.059Z,9.00
2024-02-23T14:13:08.785Z,9.10
2024-02-23T14:15:35.460Z,9.10
2024-02-23T14:18:02.622Z,9.10
2024-02-23T14:20:29.395Z,9.10
2024-02-23T14:22:56.174Z,9.10
2024-02-23T14:25:22.882Z,9.00
2024-02-23T14:27:49.572Z,9.00
2024-02-23T14:30:16.308Z,8.90
2024-02-23T14:32:43.608Z,8.90
2024-02-23T14:35:10.812Z,8.90
2024-02-23T14:37:37.568Z,8.90
2024-02-23T14:40:04.623Z,8.90
2024-02-23T14:42:31.474Z,8.90
2024-02-23T14:44:58.161Z,9.00
2024-02-23T14:47:30.020Z,9.00
2024-02-23T14:50:02.595Z,9.00
2024-02-23T14:52:29.608Z,8.90
2024-02-23T14:54:56.277Z,8.90
2024-02-23T14:57:22.903Z,9.00
2024-02-23T14:59:51.181Z,8.90
2024-02-23T15:02:22.974Z,8.90
2024-02-23T15:04:50.362Z,8.90
2024-02-23T15:07:17.654Z,8.90
2024-02-23T15:09:44.586Z,9.00
2024-02-23T15:12:12.802Z,9.10
2024-02-23T15:14:39.726Z,9.00
2024-02-23T15:17:06.561Z,9.00
2024-02-23T15:19:33.426Z,8.90
2024-02-23T15:22:00.650Z,8.90
2024-02-23T15:24:28.548Z,8.90
2024-02-23T15:26:55.490Z,8.90
2024-02-23T15:29:22.273Z,9.00
2024-02-23T15:31:48.989Z,8.90
2024-02-23T15:34:15.777Z,9.00
2024-02-23T15:36:42.484Z,9.00
2024-02-23T15:39:09.448Z,8.90
2024-02-23T15:41:36.540Z,8.90
2024-02-23T15:44:03.794Z,8.80
2024-02-23T15:46:32.039Z,8.80
2024-02-23T15:48:58.846Z,8.80
2024-02-23T15:51:37.259Z,8.80
2024-02-23T15:54:13.919Z,8.80
2024-02-23T15:56:41.241Z,8.80
2024-02-23T15:59:09.326Z,8.80
2024-02-23T16:01:37.433Z,8.90
2024-02-23T16:04:05.804Z,8.90
2024-02-23T16:06:35.299Z,9.00
2024-02-23T16:09:03.469Z,8.90
2024-02-23T16:11:33.202Z,8.90
2024-02-23T16:16:27.547Z,9.00
2024-02-23T16:18:54.293Z,9.00
2024-02-23T16:21:21.102Z,9.00
2024-02-23T16:23:47.958Z,9.00
2024-02-23T16:26:14.839Z,9.00
2024-02-23T16:28:41.649Z,8.90
2024-02-23T16:31:08.384Z,8.90
2024-02-23T16:33:35.151Z,8.80
2024-02-23T16:36:02.173Z,8.80
2024-02-23T16:38:29.102Z,8.80
2024-02-23T16:40:56.200Z,8.80
2024-02-23T16:43:22.871Z,8.80
2024-02-23T16:45:49.485Z,8.80
2024-02-23T16:48:17.083Z,8.80
2024-02-23T16:50:46.876Z,8.80
2024-02-23T16:53:14.351Z,8.80
2024-02-23T16:55:41.542Z,8.80
2024-02-23T16:58:09.407Z,8.80
2024-02-23T17:00:36.240Z,8.80
2024-02-23T17:03:04.093Z,8.80
2024-02-23T17:05:31.035Z,8.80
2024-02-23T17:07:58.203Z,8.80
2024-02-23T17:10:25.553Z,8.80
2024-02-23T17:12:54.266Z,8.80
2024-02-23T17:15:21.265Z,8.80
2024-02-23T17:17:48.601Z,8.80
2024-02-23T17:22:44.860Z,8.80
2024-02-23T17:25:11.504Z,8.80
2024-02-23T17:27:39.083Z,8.80
2024-02-23T17:30:06.542Z,8.70
2024-02-23T17:32:33.411Z,8.70
2024-02-23T17:35:00.431Z,8.60
2024-02-23T17:37:27.219Z,8.60
2024-02-23T17:39:57.028Z,8.60
2024-02-23T17:42:23.786Z,8.60
2024-02-23T17:44:51.212Z,8.50
2024-02-23T17:47:19.923Z,8.40
2024-02-23T17:49:48.721Z,8.40
2024-02-23T17:54:43.413Z,8.40
2024-02-23T17:57:10.053Z,8.40
2024-02-23T17:59:38.200Z,8.40
2024-02-23T18:02:05.061Z,8.30
2024-02-23T18:04:32.343Z,8.30
2024-02-23T18:07:00.408Z,8.30
2024-02-23T18:09:27.252Z,8.30
2024-02-23T18:11:54.003Z,8.30
2024-02-23T18:14:20.806Z,8.20
2024-02-23T18:16:48.262Z,8.20
2024-02-23T18:19:15.545Z,8.20
2024-02-23T18:21:42.273Z,8.10
2024-02-23T18:24:09.039Z,8.10
2024-02-23T18:26:37.783Z,8.10
2024-02-23T18:29:04.940Z,8.10
2024-02-23T18:31:32.345Z,8.10
2024-02-23T18:33:59.354Z,8.10
2024-02-23T18:36:26.045Z,8.20
2024-02-23T18:38:52.737Z,8.10
2024-02-23T18:41:19.515Z,8.10
2024-02-23T18:43:48.572Z,8.10
2024-02-23T18:46:15.866Z,8.10
2024-02-23T18:48:42.606Z,8.10
2024-02-23T18:51:09.552Z,8.00
2024-02-23T18:53:36.506Z,8.00
2024-02-23T18:56:06.602Z,8.00
2024-02-23T18:58:33.929Z,7.90
2024-02-23T19:01:00.906Z,7.90
2024-02-23T19:03:27.785Z,7.90
2024-02-23T19:08:21.853Z,7.90
2024-02-23T19:10:48.568Z,7.90
2024-02-23T19:13:15.317Z,7.80
2024-02-23T19:15:42.008Z,7.80
2024-02-23T19:18:08.775Z,7.80
2024-02-23T19:20:35.760Z,7.80
2024-02-23T19:23:04.584Z,7.80
2024-02-23T19:25:31.792Z,7.70
2024-02-23T19:27:59.441Z,7.80
2024-02-23T19:30:26.355Z,7.80
2024-02-23T19:32:53.081Z,7.70
2024-02-23T19:35:19.939Z,7.70
2024-02-23T19:37:46.688Z,5.00
2024-02-23T19:40:15.305Z,7.80
2024-02-23T19:42:42.045Z,7.70
2024-02-23T19:45:09.113Z,7.70
2024-02-23T19:47:35.950Z,7.70
2024-02-23T19:50:02.753Z,7.60
2024-02-23T19:52:30.470Z,7.70
2024-02-23T19:54:57.273Z,7.60
2024-02-23T19:57:27.558Z,7.70
2024-02-23T19:59:54.891Z,7.70
2024-02-23T20:02:21.587Z,7.60
2024-02-23T20:04:53.546Z,7.60
2024-02-23T20:07:22.101Z,7.60
2024-02-23T20:09:48.935Z,7.60
2024-02-23T20:12:15.857Z,7.50
2024-02-23T20:14:42.741Z,7.50
2024-02-23T20:17:09.968Z,7.50
2024-02-23T20:19:36.845Z,7.50
2024-02-23T20:22:03.792Z,7.50
2024-02-23T20:24:30.645Z,7.40
2024-02-23T20:26:57.350Z,7.40
2024-02-23T20:31:51.141Z,7.30
2024-02-23T20:34:18.127Z,7.30
2024-02-23T20:36:45.389Z,7.50
2024-02-23T20:41:41.574Z,7.20
2024-02-23T20:44:08.772Z,7.10
2024-02-23T20:46:35.573Z,7.10
2024-02-23T20:49:03.122Z,7.10
2024-02-23T20:51:30.242Z,7.00
2024-02-23T20:53:57.201Z,7.00
2024-02-23T20:56:23.931Z,7.00
2024-02-23T20:58:51.535Z,7.00
2024-02-23T21:01:18.397Z,6.90
2024-02-23T21:06:12.564Z,7.00
2024-02-23T21:08:40.314Z,6.90
2024-02-23T21:11:07.751Z,6.90
2024-02-23T21:13:34.628Z,6.90
2024-02-23T21:16:01.383Z,6.90
2024-02-23T21:18:28.250Z,6.80
2024-02-23T21:20:55.083Z,6.80
2024-02-23T21:23:22.758Z,6.90
2024-02-23T21:25:49.478Z,6.80
2024-02-23T21:28:17.962Z,6.80
2024-02-23T21:30:49.075Z,6.70
2024-02-23T21:33:16.051Z,6.70
2024-02-23T21:35:43.217Z,6.60
2024-02-23T21:38:10.604Z,6.60
2024-02-23T21:40:37.359Z,6.50
2024-02-23T21:43:05.038Z,6.40
2024-02-23T21:45:32.399Z,6.40
2024-02-23T21:47:59.310Z,6.30
2024-02-23T21:50:26.418Z,6.40
2024-02-23T21:52:53.271Z,6.30
2024-02-23T21:55:22.846Z,6.40
2024-02-23T21:57:49.530Z,6.40
2024-02-23T22:00:16.849Z,6.40
2024-02-23T22:02:43.679Z,6.50
2024-02-23T22:05:10.613Z,6.50
2024-02-23T22:07:38.673Z,6.50
2024-02-23T22:10:06.240Z,6.50
2024-02-23T22:12:32.955Z,6.40
2024-02-23T22:15:00.670Z,6.40
2024-02-23T22:17:28.140Z,6.30
2024-02-23T22:19:54.974Z,6.40
2024-02-23T22:22:21.866Z,6.40
2024-02-23T22:24:49.124Z,6.40
2024-02-23T22:27:16.825Z,6.30
2024-02-23T22:29:46.114Z,6.30
2024-02-23T22:32:13.085Z,6.30
2024-02-23T22:34:39.998Z,6.30
2024-02-23T22:37:06.779Z,6.30
2024-02-23T22:39:33.401Z,6.30
2024-02-23T22:42:00.525Z,6.30
2024-02-23T22:44:27.550Z,6.30
2024-02-23T22:46:55.761Z,6.20
2024-02-23T22:49:23.374Z,6.20
2024-02-23T22:54:17.598Z,6.20
2024-02-23T22:56:44.755Z,6.20
2024-02-23T22:59:11.877Z,6.20
2024-02-23T23:01:39.843Z,6.20
2024-02-23T23:04:07.522Z,6.20
2024-02-23T23:06:35.737Z,6.20
2024-02-23T23:09:03.298Z,6.20
2024-02-23T23:11:30.479Z,6.10
2024-02-23T23:13:59.245Z,6.10
2024-02-23T23:16:26.468Z,6.10
2024-02-23T23:18:53.284Z,6.10
2024-02-23T23:21:20.245Z,6.00
2024-02-23T23:23:47.085Z,6.00
2024-02-23T23:26:13.916Z,6.00
2024-02-23T23:28:40.691Z,6.00
2024-02-23T23:31:07.300Z,6.00
2024-02-23T23:33:34.169Z,5.90
2024-02-23T23:36:01.000Z,5.90
2024-02-23T23:38:27.749Z,6.00
2024-02-23T23:40:54.475Z,6.00
2024-02-23T23:43:21.298Z,6.00
2024-02-23T23:45:48.060Z,5.90
2024-02-23T23:48:17.319Z,5.90
2024-02-23T23:50:44.498Z,5.80
2024-02-23T23:53:11.488Z,5.80
2024-02-23T23:55:38.898Z,5.70
2024-02-23T23:58:05.738Z,5.70
